Database: COMPET-N - COOP - 3PL - 4PL - CNDOOM

WAD: Doom | Doom 2 | TNT | Plutonia | AV | HR | Scythe | MM | MM2 | Requiem | CE
Category: speed | nmare | max | nm100s | tyson | pacifist | fast | respawn | nomo | misc | built | all
Highscore: ALL | IWAD | PWAD | Country | Continent

< Previous map       Next map >
Remove: wad | map | category | player | allMAP02
MapPlayerTimeDateFilenameCommentsDL
MAP02: Gateway LabXepop 11.002009-12-07hr02-011.zip - 387
MAP02: Gateway LabCack_handed 15.002006-09-13hr02-015.zip - 222
MAP02: Gateway LabJakub Machata42.002003-08-31hr02-042.zip - 174
MAP02: Gateway LabJakub Machata46.002003-03-29hr02-046.zip - 210
MAP02: Gateway LabJakub Machata48.002003-02-21hr02-048.zip - 193
MAP02: Gateway LabJakub Machata55.002003-02-18hr02-055.zip - 185
MAP02: Gateway LabCasey Alvis1:06.002003-01-19hr02-106.zip - 173
MAP02: Gateway LabJakub Machata1:15.002003-01-19hr02-115.zip - 177
MAP02: Gateway LabCasey Alvis1:16.002003-01-19hr02-116.zip - 154
MAP02: Gateway LabJakub Machata1:24.002003-01-18hr02-124.zip - 172
MAP02: Gateway LabCasey Alvis1:28.002003-01-09hr02-128.zip - 177
MAP02: Gateway LabJakub Machata1:37.002003-01-09hr02-137.zip - 178
MAP02: Gateway LabCasey Alvis1:40.002003-01-05hr02-140.zip - 158
MAP02: Gateway LabSelim Benabdelkhalek1:42.002001-06-25hr02-142.zip - 157
MAP02: Gateway LabDoug Merrill1:44.002001-02-25hr02-144.zip - 181
MAP02: Gateway LabXepop 11.002009-12-08hn02-011.zip - 381
MAP02: Gateway LabCack_handed 19.002006-09-13hn02-019.zip - 250
MAP02: Gateway LabDrew DeVore2:05.002013-07-06hr02-205.zip - 363
MAP02: Gateway LabRadek Pecka2:10.002003-11-02hr02-210.zip - 188
MAP02: Gateway LabJakub Machata2:16.002003-04-30hr02-216.zip - 186
MAP02: Gateway LabJakub Machata2:17.002003-04-26hr02-217.zip - 161
MAP02: Gateway LabJakub Machata2:24.002003-04-03hr02-224.zip - 162
MAP02: Gateway LabRadek Pecka2:26.002001-04-04hr02-226.zip - 218
MAP02: Gateway LabAnders Johnsen2:33.002000-05-15hr02-233.zip - 196
MAP02: Gateway LabAnders Johnsen2:41.001998-04-24hr02-241.zip - 183
MAP02: Gateway LabYonatan Donner3:24.001997-05-25hr02-324.zip - 138
MAP02: Gateway LabJim Leonard1:06.002009-12-22hs02-106.zip - 382
MAP02: Gateway LabJim Leonard9:47.002002-04-27ht02-947.zip - 364
MAP02: Gateway LabChris Ratcliff12:22.002001-12-24ht021222.zip - 209
MAP02: Gateway LabErwin Lin16:13.002001-11-21ht021613.zip - 160
MAP02: Gateway LabXepop 11.002009-12-07hp02-011.zip - 393
MAP02: Gateway LabCack_handed 15.002006-09-13hp02-015.zip - 227
MAP02: Gateway LabJakub Machata2:37.002003-07-01hf02-237.zip - 281
MAP02: Gateway LabJakub Machata2:44.002003-03-30hf02-244.zip - 186
MAP02: Gateway LabAnders Johnsen2:54.002000-05-15hf02-254.zip - 202
MAP02: Gateway LabYonatan Donner3:53.001998-05-24hf02-353.zip - 167
MAP02: Gateway LabJakub Machata2:10.002003-07-12he02-210.zip - 345
MAP02: Gateway LabJakub Machata2:28.002003-04-03he02-228.zip - 196
MAP02: Gateway LabJakub Machata2:40.002003-02-19he02-240.zip - 175
MAP02: Gateway LabCasey Alvis3:56.002002-07-10he02-356.zip - 169
Remove: wad | map | category | player | all